• Join FlightAware (Why Join?)
  • Login
  • US Flag 
01:57AM EDT


 

Airport Tracker/Info


-or-


 

Live Flight TrackerFlight Track Log ✈ UAL4434 ✈ 24-Apr-2013 ✈ KEWR - KMHT

Flight Track Log - Related Links

Times and Time Zones

All times are in EDT time to prevent confusion due to time zone crossing. See the UAL4434 flight status page for this flight to view local times or setup timezone preferences in your user account.

Time Position Orientation Groundspeed Altitude Reporting Facility
EDT Latitude Longitude Course Direction KTS MPH feet Rate Location/Type
03:36PM 40.6500 -74.1833 48° Northeast 179 206 1,900  Level New York TRACON
03:37PM 40.6000 -74.2167 207° Southwest 223 257 2,500 1,500 Climbing New York TRACON
03:38PM 40.6500 -74.2667 323° Northwest 283 326 4,800 2,280 Climbing New York TRACON
03:39PM 40.7167 -74.2000 37° Northeast 309 356 7,100 2,220 Climbing New York TRACON
03:40PM 41.0374 -73.7747 40° Northeast  Level FlightAware Approximate
03:40PM 40.7333 -74.1000 78° East 309 356 9,300  Level New York TRACON
03:41PM 41.1100 -73.6930 40° Northeast  Level FlightAware Approximate
03:42PM 41.1891 -73.6247 48° Northeast  Level FlightAware Approximate
03:42PM 40.8161 -73.8361 67° East 353 406 10,200  Level Boston Center
03:43PM 40.9086 -73.7692 29° Northeast 343 395 12,000 1,740 Climbing Boston Center
03:44PM 40.9822 -73.7131 30° Northeast 354 407 13,700 1,860 Climbing Boston Center
03:45PM 41.0981 -73.6189 31° Northeast 369 425 15,800 1,740 Climbing Boston Center
03:46PM 41.1800 -73.5542 31° Northeast 381 438 17,200 1,500 Climbing Boston Center
03:47PM 41.2806 -73.4758 30° Northeast 387 445 18,900 1,500 Climbing Boston Center
03:48PM 41.3689 -73.4108 29° Northeast 387 445 20,200 1,380 Climbing Boston Center
03:49PM 41.4753 -73.3958 North 379 436 21,700 1,380 Climbing Boston Center
03:50PM 41.5919 -73.3867 North 374 430 23,000 600 Climbing Boston Center
03:51PM 41.7089 -73.3717 North 388 447 23,000  Level Boston Center
03:52PM 41.8361 -73.3594 North 415 478 23,000  Level Boston Center
03:53PM 41.9611 -73.3419 North 445 512 23,000  Level Boston Center
03:54PM 42.0883 -73.3297 North 450 518 23,000  Level Boston Center
03:55PM 42.2094 -73.3175 North 450 518 23,000  Level Boston Center
03:56PM 42.3094 -73.3047 North 450 518 23,000 -180 Level Boston Center
03:57PM 42.4472 -73.2786 North 450 518 22,700 -660 Descending Boston Center
03:58PM 42.5622 -73.2264 18° North 434 499 21,700 -1,080 Descending Boston Center
03:59PM 42.6278 -73.0694 60° Northeast 402 463 20,600 -1,020 Descending Boston Center
04:00PM 42.6578 -72.9256 74° East 402 463 19,700 -780 Descending Boston Center
04:02PM 42.6939 -72.7761 72° East 409 471 19,000 -900 Descending Boston Center
04:03PM 42.7317 -72.5928 74° East 409 471 17,600 -2,040 Descending Boston Center
04:04PM 42.7672 -72.4175 74° East 409 471 14,600 -2,580 Descending Boston Center
04:05PM 42.7942 -72.2758 75° East 396 456 12,500 -1,920 Descending Boston Center
04:06PM 42.8064 -72.1289 83° East 360 414 10,800 -1,680 Descending Boston Center
04:07PM 42.8144 -72.0269 84° East 323 372 9,200 -1,260 Descending Boston Center
04:08PM 42.8411 -71.9133 72° East 295 339 8,300 -1,260 Descending Boston Center
04:09PM 42.8906 -71.8394 48° Northeast 279 321 6,700 -1,620 Descending Boston Center
04:10PM 42.9506 -71.7564 45° Northeast 274 315 5,100 -1,500 Descending Boston Center
04:11PM 42.9961 -71.6936 45° Northeast 262 302 3,700 -1,200 Descending Boston Center
04:12PM 43.0331 -71.6136 58° Northeast 237 273 2,700 -1,020 Descending Boston Center